Time;durP1;ratioP1;P1;durP2;ratioP2;P2;SDS_P1;SDS_P2;PMS_P1;PMS_P2;Temp;Humidity;BMP_temperature;BMP_pressure;BME280_temperature;BME280_humidity;BME280_pressure;Samples;Min_cycle;Max_cycle;Signal;HPM_P1;HPM_P2
2022/10/03 00:00:03;;;;;;;16.93;6.50;;;;;;;;;;6267254;22;20173;-81
2022/10/03 00:02:40;;;;;;;20.50;8.40;;;;;;;;;;6269377;22;20168;-82
2022/10/03 00:05:19;;;;;;;22.57;8.17;;;;;;;;;;6303177;22;20198;-81
2022/10/03 00:08:00;;;;;;;14.00;6.10;;;;;;;;;;6303154;22;20275;-81
2022/10/03 00:10:33;;;;;;;13.97;6.13;;;;;;;;;;6303011;22;20180;-81
2022/10/03 00:13:05;;;;;;;15.83;6.77;;;;;;;;;;6278060;22;20396;-81
2022/10/03 00:15:36;;;;;;;16.30;7.00;;;;;;;;;;6295151;22;20188;-81
2022/10/03 00:18:11;;;;;;;15.83;7.00;;;;;;;;;;6324148;22;20207;-81
2022/10/03 00:20:47;;;;;;;18.30;6.53;;;;;;;;;;6322036;22;20468;-79
2022/10/03 00:23:18;;;;;;;11.07;6.17;;;;;;;;;;6317128;22;20212;-81
2022/10/03 00:25:49;;;;;;;12.53;6.27;;;;;;;;;;6322827;22;20172;-79
2022/10/03 00:28:23;;;;;;;13.73;6.37;;;;;;;;;;6320987;22;20208;-80
2022/10/03 00:31:06;;;;;;;22.00;6.80;;;;;;;;;;6322318;22;20161;-80
2022/10/03 00:33:38;;;;;;;19.87;6.53;;;;;;;;;;6324961;22;20192;-80
2022/10/03 00:36:08;;;;;;;14.37;6.97;;;;;;;;;;6302884;22;20332;-80
2022/10/03 00:38:42;;;;;;;17.07;6.83;;;;;;;;;;6293476;22;20405;-82
2022/10/03 00:41:27;;;;;;;15.40;6.57;;;;;;;;;;6259280;22;20232;-82
2022/10/03 00:44:28;;;;;;;20.77;7.00;;;;;;;;;;6257434;22;20178;-80
2022/10/03 00:47:02;;;;;;;14.37;6.63;;;;;;;;;;6276166;22;20194;-80
2022/10/03 00:49:41;;;;;;;22.80;6.70;;;;;;;;;;6272118;22;20161;-80
2022/10/03 00:52:18;;;;;;;18.83;6.57;;;;;;;;;;6271153;22;20182;-81
2022/10/03 00:54:51;;;;;;;14.20;6.63;;;;;;;;;;6271135;22;20283;-79
2022/10/03 00:57:40;;;;;;;14.33;6.40;;;;;;;;;;6270979;22;20221;-80
2022/10/03 01:00:15;;;;;;;17.83;6.57;;;;;;;;;;6218716;22;20177;-80
2022/10/03 01:03:01;;;;;;;17.57;6.33;;;;;;;;;;6270941;22;20161;-80
2022/10/03 01:05:37;;;;;;;19.03;6.17;;;;;;;;;;6271398;22;20314;-80
2022/10/03 01:08:11;;;;;;;17.70;6.27;;;;;;;;;;6270737;22;20242;-80
2022/10/03 01:10:45;;;;;;;16.10;6.47;;;;;;;;;;6270081;22;20177;-81
2022/10/03 01:13:20;;;;;;;15.87;6.57;;;;;;;;;;6271447;22;20177;-80
2022/10/03 01:15:52;;;;;;;18.20;6.33;;;;;;;;;;6269028;22;20173;-81
2022/10/03 01:18:26;;;;;;;15.57;5.93;;;;;;;;;;6270956;22;20259;-81
2022/10/03 01:20:59;;;;;;;16.27;5.80;;;;;;;;;;6270829;22;20177;-82
2022/10/03 01:23:38;;;;;;;13.03;5.43;;;;;;;;;;6270357;22;20252;-81
2022/10/03 01:26:15;;;;;;;12.37;5.27;;;;;;;;;;6271074;22;20367;-81
2022/10/03 01:31:41;;;;;;;15.80;6.70;;;;;;;;;;6271821;22;20489;-80
2022/10/03 01:34:11;;;;;;;11.07;6.37;;;;;;;;;;6269216;22;20192;-80
2022/10/03 01:36:42;;;;;;;15.90;6.67;;;;;;;;;;6269112;22;20181;-81
2022/10/03 01:39:13;;;;;;;20.50;7.07;;;;;;;;;;6270099;22;20185;-80
2022/10/03 01:41:48;;;;;;;15.73;6.13;;;;;;;;;;6270221;22;20545;-80
2022/10/03 01:44:23;;;;;;;20.30;7.73;;;;;;;;;;6269425;22;20496;-81
2022/10/03 01:46:53;;;;;;;20.00;8.40;;;;;;;;;;6269972;22;20161;-80
2022/10/03 01:49:26;;;;;;;26.50;7.47;;;;;;;;;;6270549;22;20173;-81
2022/10/03 01:51:56;;;;;;;22.37;8.23;;;;;;;;;;6270506;22;20157;-81
2022/10/03 01:54:29;;;;;;;19.57;7.67;;;;;;;;;;6271093;22;20166;-81
2022/10/03 01:56:59;;;;;;;31.73;7.40;;;;;;;;;;6268754;22;20194;-80
2022/10/03 01:59:34;;;;;;;22.00;7.53;;;;;;;;;;6269302;22;20185;-81
2022/10/03 02:02:03;;;;;;;19.30;7.50;;;;;;;;;;6270517;22;20211;-80
2022/10/03 02:04:37;;;;;;;24.27;7.20;;;;;;;;;;6269728;22;20640;-81
2022/10/03 02:07:08;;;;;;;18.47;7.00;;;;;;;;;;6269424;22;20691;-80
2022/10/03 02:09:38;;;;;;;21.50;7.20;;;;;;;;;;6270289;22;20162;-81
2022/10/03 02:12:11;;;;;;;19.37;6.93;;;;;;;;;;6270101;22;20174;-80
2022/10/03 02:14:49;;;;;;;15.33;6.77;;;;;;;;;;6270155;22;20562;-81
2022/10/03 02:17:27;;;;;;;21.47;7.50;;;;;;;;;;6269767;22;20237;-82
2022/10/03 02:19:58;;;;;;;16.47;6.80;;;;;;;;;;6245409;22;20569;-80
2022/10/03 02:22:31;;;;;;;17.23;6.23;;;;;;;;;;6245290;22;20530;-79
2022/10/03 02:25:13;;;;;;;22.63;7.10;;;;;;;;;;6245243;22;20225;-80
2022/10/03 02:27:52;;;;;;;18.33;6.00;;;;;;;;;;6270723;22;20193;-81
2022/10/03 02:30:26;;;;;;;17.97;6.90;;;;;;;;;;6271192;22;20237;-81
2022/10/03 02:33:14;;;;;;;23.30;6.33;;;;;;;;;;6272314;22;20264;-81
2022/10/03 02:35:51;;;;;;;10.30;5.53;;;;;;;;;;6271179;22;20182;-79
2022/10/03 02:38:28;;;;;;;9.87;5.07;;;;;;;;;;6271194;22;20232;-79
2022/10/03 02:41:18;;;;;;;16.60;6.73;;;;;;;;;;6272021;22;20166;-81
2022/10/03 02:44:05;;;;;;;17.90;5.87;;;;;;;;;;6244082;22;20174;-81
2022/10/03 02:46:52;;;;;;;18.00;6.47;;;;;;;;;;6243753;22;20256;-81
2022/10/03 02:49:34;;;;;;;11.90;5.93;;;;;;;;;;6245644;22;20253;-81
2022/10/03 02:52:25;;;;;;;10.70;6.03;;;;;;;;;;6272227;22;20164;-81
2022/10/03 02:55:01;;;;;;;13.30;5.30;;;;;;;;;;6248932;22;20208;-81
2022/10/03 02:57:52;;;;;;;10.73;5.47;;;;;;;;;;6271530;22;20205;-81
2022/10/03 03:00:21;;;;;;;11.80;5.57;;;;;;;;;;6248762;22;20204;-81
2022/10/03 03:03:03;;;;;;;11.57;5.60;;;;;;;;;;6270849;22;20239;-81
2022/10/03 03:05:35;;;;;;;14.97;6.03;;;;;;;;;;6268334;22;20201;-81
2022/10/03 03:08:27;;;;;;;13.23;5.37;;;;;;;;;;6270499;22;20547;-82
2022/10/03 03:11:10;;;;;;;18.17;5.80;;;;;;;;;;6271081;22;20188;-82
2022/10/03 03:13:52;;;;;;;14.83;5.40;;;;;;;;;;6270568;22;20247;-80
2022/10/03 03:16:39;;;;;;;11.90;5.20;;;;;;;;;;6272142;22;20166;-80
2022/10/03 03:19:18;;;;;;;12.77;5.27;;;;;;;;;;6272231;22;20162;-81
2022/10/03 03:21:49;;;;;;;12.63;5.60;;;;;;;;;;6244243;22;20162;-81
2022/10/03 03:24:25;;;;;;;12.30;5.57;;;;;;;;;;6272181;22;20182;-82
2022/10/03 03:27:21;;;;;;;11.63;5.67;;;;;;;;;;6244114;22;20699;-82
2022/10/03 03:29:55;;;;;;;11.70;5.87;;;;;;;;;;6271273;22;20166;-82
2022/10/03 03:32:29;;;;;;;12.77;6.23;;;;;;;;;;6271421;22;20169;-82
2022/10/03 03:35:01;;;;;;;9.17;5.10;;;;;;;;;;6271533;22;20180;-81
2022/10/03 03:37:34;;;;;;;12.23;5.87;;;;;;;;;;6270438;22;20558;-81
2022/10/03 03:40:12;;;;;;;18.80;6.13;;;;;;;;;;6244245;22;20705;-81
2022/10/03 03:42:46;;;;;;;16.77;5.93;;;;;;;;;;6271264;22;20244;-81
2022/10/03 03:45:28;;;;;;;11.17;5.97;;;;;;;;;;6244761;22;20177;-81
2022/10/03 03:48:00;;;;;;;10.20;5.37;;;;;;;;;;6271033;22;20204;-82
2022/10/03 03:50:48;;;;;;;13.37;5.37;;;;;;;;;;6244759;22;20247;-82
2022/10/03 03:53:28;;;;;;;11.67;5.67;;;;;;;;;;6243904;22;20198;-82
2022/10/03 03:56:03;;;;;;;12.17;5.73;;;;;;;;;;6270657;22;20234;-82
2022/10/03 03:58:36;;;;;;;12.77;5.10;;;;;;;;;;6271549;22;20626;-82
2022/10/03 04:01:18;;;;;;;11.70;5.30;;;;;;;;;;6244691;22;20184;-82
2022/10/03 04:03:54;;;;;;;10.17;5.33;;;;;;;;;;6269296;22;20257;-79
2022/10/03 04:06:35;;;;;;;11.10;5.40;;;;;;;;;;6271936;22;20168;-79
2022/10/03 04:09:14;;;;;;;12.00;5.43;;;;;;;;;;6269380;22;20400;-80
2022/10/03 04:11:48;;;;;;;12.30;6.00;;;;;;;;;;6270470;22;20192;-79
2022/10/03 04:14:33;;;;;;;13.57;6.37;;;;;;;;;;6269446;22;20193;-79
2022/10/03 04:20:03;;;;;;;19.77;9.50;;;;;;;;;;6231363;22;20177;-80
2022/10/03 04:22:41;;;;;;;42.00;18.43;;;;;;;;;;6244495;22;20177;-80
2022/10/03 04:25:22;;;;;;;29.80;13.20;;;;;;;;;;6270959;22;20624;-80
2022/10/03 04:27:57;;;;;;;28.53;11.20;;;;;;;;;;6244352;22;20198;-79
2022/10/03 04:30:31;;;;;;;23.33;9.37;;;;;;;;;;6272198;22;20172;-80
2022/10/03 04:33:24;;;;;;;34.53;13.13;;;;;;;;;;6243929;22;20277;-80
2022/10/03 04:36:15;;;;;;;33.87;14.80;;;;;;;;;;6241361;22;20675;-80
2022/10/03 04:38:49;;;;;;;26.00;11.50;;;;;;;;;;6240955;22;20193;-80
2022/10/03 04:41:26;;;;;;;16.83;6.47;;;;;;;;;;6243800;22;20164;-80
2022/10/03 04:43:59;;;;;;;11.33;5.80;;;;;;;;;;6270047;22;20651;-80
2022/10/03 04:46:31;;;;;;;15.63;5.07;;;;;;;;;;6271905;22;20244;-80
2022/10/03 04:49:03;;;;;;;13.37;5.33;;;;;;;;;;6270645;22;20201;-80
2022/10/03 04:51:40;;;;;;;12.80;5.53;;;;;;;;;;6271223;22;20164;-80
2022/10/03 04:54:15;;;;;;;13.83;5.50;;;;;;;;;;6269394;22;20189;-80
2022/10/03 04:56:45;;;;;;;11.17;5.23;;;;;;;;;;6245177;22;20672;-80
2022/10/03 04:59:24;;;;;;;12.67;5.77;;;;;;;;;;6271251;22;20567;-80
2022/10/03 05:01:53;;;;;;;14.43;6.30;;;;;;;;;;6271011;22;20164;-80
2022/10/03 05:04:25;;;;;;;17.03;6.03;;;;;;;;;;6269590;22;20172;-82
2022/10/03 05:06:56;;;;;;;33.67;14.90;;;;;;;;;;6270846;22;20738;-80
2022/10/03 05:09:29;;;;;;;71.43;27.67;;;;;;;;;;6270284;22;20187;-80
2022/10/03 05:11:59;;;;;;;41.13;14.93;;;;;;;;;;6269309;22;20174;-80
2022/10/03 05:14:33;;;;;;;40.30;16.83;;;;;;;;;;6243497;22;20190;-80
2022/10/03 05:17:03;;;;;;;22.10;10.70;;;;;;;;;;6269219;22;20194;-80
2022/10/03 05:19:51;;;;;;;24.90;11.30;;;;;;;;;;6270806;22;20177;-81
2022/10/03 05:22:23;;;;;;;22.57;11.90;;;;;;;;;;6259740;22;20243;-80
2022/10/03 05:24:58;;;;;;;25.83;12.07;;;;;;;;;;6269397;22;20215;-80
2022/10/03 05:27:27;;;;;;;25.77;10.90;;;;;;;;;;6269380;22;20269;-80
2022/10/03 05:30:00;;;;;;;25.00;11.33;;;;;;;;;;6270594;22;20253;-80
2022/10/03 05:32:32;;;;;;;19.27;8.00;;;;;;;;;;6269857;22;20168;-81
2022/10/03 05:35:14;;;;;;;19.13;8.17;;;;;;;;;;6268628;22;20281;-82
2022/10/03 05:37:53;;;;;;;20.63;9.73;;;;;;;;;;6242892;22;20198;-81
2022/10/03 05:40:25;;;;;;;18.97;9.07;;;;;;;;;;6269623;22;20177;-81
2022/10/03 05:43:01;;;;;;;25.57;9.10;;;;;;;;;;6270289;22;20236;-81
2022/10/03 05:45:30;;;;;;;18.60;8.67;;;;;;;;;;6269340;22;20165;-81
2022/10/03 05:48:11;;;;;;;24.47;10.93;;;;;;;;;;6270519;22;20629;-81
2022/10/03 05:50:58;;;;;;;22.90;10.53;;;;;;;;;;6270682;22;20201;-80
2022/10/03 05:53:43;;;;;;;23.57;11.00;;;;;;;;;;6243947;22;20271;-81
2022/10/03 05:56:19;;;;;;;22.83;10.60;;;;;;;;;;6246493;22;20188;-81
2022/10/03 05:59:05;;;;;;;28.20;10.67;;;;;;;;;;6274093;22;20197;-81
2022/10/03 06:01:57;;;;;;;43.43;21.67;;;;;;;;;;6273379;22;20184;-81
2022/10/03 06:04:52;;;;;;;38.83;16.40;;;;;;;;;;6274271;22;20597;-80
2022/10/03 06:07:23;;;;;;;26.80;11.47;;;;;;;;;;6274132;22;20280;-81
2022/10/03 06:10:04;;;;;;;31.00;13.60;;;;;;;;;;6274752;22;20166;-81
2022/10/03 06:12:39;;;;;;;28.40;14.20;;;;;;;;;;6274267;22;20166;-80
2022/10/03 06:15:24;;;;;;;28.70;13.50;;;;;;;;;;6273323;22;20193;-80
2022/10/03 06:18:06;;;;;;;25.50;12.80;;;;;;;;;;6254928;22;20198;-80
2022/10/03 06:21:06;;;;;;;32.60;11.83;;;;;;;;;;6207720;22;20182;-81
2022/10/03 06:23:48;;;;;;;33.43;13.33;;;;;;;;;;6272621;22;20174;-80
2022/10/03 06:26:27;;;;;;;33.20;16.07;;;;;;;;;;6248639;22;20175;-81
2022/10/03 06:29:03;;;;;;;43.30;21.47;;;;;;;;;;6273647;22;20272;-80
2022/10/03 06:31:55;;;;;;;43.67;21.00;;;;;;;;;;6273679;22;20173;-81
2022/10/03 06:34:37;;;;;;;41.53;19.87;;;;;;;;;;6273378;22;20201;-81
2022/10/03 06:37:19;;;;;;;37.37;19.17;;;;;;;;;;6249259;22;20194;-81
2022/10/03 06:40:19;;;;;;;42.30;18.30;;;;;;;;;;6269336;22;20256;-80
2022/10/03 06:43:04;;;;;;;44.70;17.63;;;;;;;;;;6273116;22;20202;-80
2022/10/03 06:45:50;;;;;;;37.87;18.30;;;;;;;;;;6253058;22;21037;-80
2022/10/03 06:48:26;;;;;;;41.03;17.40;;;;;;;;;;6270944;22;20193;-80
2022/10/03 06:50:56;;;;;;;35.97;15.43;;;;;;;;;;6272409;22;20180;-80
2022/10/03 06:53:38;;;;;;;35.70;15.70;;;;;;;;;;6272836;22;20216;-80
2022/10/03 06:56:24;;;;;;;39.57;15.70;;;;;;;;;;6245700;22;20486;-81
2022/10/03 06:59:06;;;;;;;37.67;16.07;;;;;;;;;;6273067;22;20190;-81
2022/10/03 07:01:49;;;;;;;33.73;14.73;;;;;;;;;;6272799;22;20253;-80
2022/10/03 07:04:32;;;;;;;37.70;15.03;;;;;;;;;;6245213;22;20292;-81
2022/10/03 07:07:06;;;;;;;33.67;14.00;;;;;;;;;;6272806;22;20198;-81
2022/10/03 07:09:47;;;;;;;33.53;14.67;;;;;;;;;;6272798;22;20169;-80
2022/10/03 07:12:32;;;;;;;34.20;14.53;;;;;;;;;;6273190;22;20246;-79
2022/10/03 07:15:27;;;;;;;27.33;13.03;;;;;;;;;;6212558;22;20284;-79
2022/10/03 07:18:15;;;;;;;30.87;12.80;;;;;;;;;;6244111;22;20597;-80
2022/10/03 07:21:02;;;;;;;35.97;12.87;;;;;;;;;;6273016;22;20248;-81
2022/10/03 07:23:47;;;;;;;26.73;12.50;;;;;;;;;;6252728;22;20484;-80
2022/10/03 07:26:38;;;;;;;32.63;13.20;;;;;;;;;;6270049;22;20201;-81
2022/10/03 07:29:15;;;;;;;29.00;13.07;;;;;;;;;;6270580;22;20177;-80
2022/10/03 07:31:57;;;;;;;32.20;12.83;;;;;;;;;;6272277;22;20208;-80
2022/10/03 07:34:33;;;;;;;30.50;12.87;;;;;;;;;;6270970;22;20571;-82
2022/10/03 07:40:17;;;;;;;32.47;12.07;;;;;;;;;;6272170;22;20161;-81
2022/10/03 07:43:00;;;;;;;30.50;13.40;;;;;;;;;;6242995;22;20177;-80
2022/10/03 07:45:39;;;;;;;28.03;12.33;;;;;;;;;;6267276;22;20241;-80
2022/10/03 07:48:24;;;;;;;29.17;11.80;;;;;;;;;;6269861;22;20272;-80
2022/10/03 07:51:00;;;;;;;26.23;11.67;;;;;;;;;;6270030;22;20177;-82
2022/10/03 07:53:42;;;;;;;23.13;10.97;;;;;;;;;;6270204;22;20177;-82
2022/10/03 07:56:13;;;;;;;26.53;11.07;;;;;;;;;;6243810;22;20239;-78
2022/10/03 07:58:50;;;;;;;24.67;11.13;;;;;;;;;;6271866;22;20204;-78
2022/10/03 08:01:32;;;;;;;22.50;11.10;;;;;;;;;;6271544;22;20184;-79
2022/10/03 08:04:14;;;;;;;22.57;10.07;;;;;;;;;;6270876;22;20174;-79
2022/10/03 08:06:44;;;;;;;24.77;10.47;;;;;;;;;;6268405;22;20195;-79
2022/10/03 08:09:26;;;;;;;23.63;9.80;;;;;;;;;;6267894;22;20720;-79
2022/10/03 08:12:14;;;;;;;20.23;8.80;;;;;;;;;;6254120;22;20177;-80
2022/10/03 08:14:45;;;;;;;20.40;9.13;;;;;;;;;;6271804;22;20178;-79
2022/10/03 08:17:30;;;;;;;20.73;8.97;;;;;;;;;;6270935;22;20217;-80
2022/10/03 08:20:07;;;;;;;18.93;8.67;;;;;;;;;;6272609;22;20269;-80
2022/10/03 08:22:43;;;;;;;20.87;8.60;;;;;;;;;;6270526;22;20211;-79
2022/10/03 08:25:26;;;;;;;17.47;8.17;;;;;;;;;;6270855;22;20200;-80
2022/10/03 08:28:15;;;;;;;18.33;7.40;;;;;;;;;;6242051;22;20711;-81
2022/10/03 08:30:53;;;;;;;16.37;8.20;;;;;;;;;;6260134;22;20174;-81
2022/10/03 08:33:41;;;;;;;18.77;7.70;;;;;;;;;;6241677;22;20276;-81
2022/10/03 08:36:29;;;;;;;23.90;7.73;;;;;;;;;;6263987;22;20217;-82
2022/10/03 08:39:15;;;;;;;17.00;7.77;;;;;;;;;;6267107;22;20205;-83
2022/10/03 08:41:57;;;;;;;17.70;7.27;;;;;;;;;;6267676;22;20180;-81
2022/10/03 08:44:43;;;;;;;22.70;8.17;;;;;;;;;;6268238;22;20165;-81
2022/10/03 08:47:19;;;;;;;20.60;8.40;;;;;;;;;;6270382;22;20198;-87
2022/10/03 08:50:03;;;;;;;19.27;8.17;;;;;;;;;;6269769;22;20248;-78
2022/10/03 08:52:38;;;;;;;19.07;7.83;;;;;;;;;;6268846;22;20158;-78
2022/10/03 08:55:27;;;;;;;20.53;6.70;;;;;;;;;;6240010;22;20197;-84
2022/10/03 08:58:20;;;;;;;19.10;6.43;;;;;;;;;;6229989;22;20205;-81
2022/10/03 09:01:08;;;;;;;17.47;6.07;;;;;;;;;;6268766;22;20197;-83
2022/10/03 09:03:46;;;;;;;17.50;5.87;;;;;;;;;;6268296;22;20180;-82
2022/10/03 09:06:32;;;;;;;13.87;5.80;;;;;;;;;;6270549;22;20158;-84
2022/10/03 09:09:14;;;;;;;14.13;5.13;;;;;;;;;;6268301;22;20558;-85
2022/10/03 09:11:51;;;;;;;15.43;5.80;;;;;;;;;;6265185;22;20212;-82
2022/10/03 09:14:46;;;;;;;15.77;5.87;;;;;;;;;;6240888;22;20174;-81
2022/10/03 09:17:37;;;;;;;15.80;5.33;;;;;;;;;;6269428;22;20277;-83
2022/10/03 09:20:19;;;;;;;12.90;6.00;;;;;;;;;;6266482;22;20808;-85
2022/10/03 09:23:02;;;;;;;13.67;5.60;;;;;;;;;;6269894;22;20168;-82
2022/10/03 09:25:41;;;;;;;13.63;5.20;;;;;;;;;;6253969;22;20201;-83
2022/10/03 09:28:36;;;;;;;13.77;4.83;;;;;;;;;;6272115;22;20209;-83
2022/10/03 09:31:11;;;;;;;14.50;5.10;;;;;;;;;;6249645;22;20173;-83
2022/10/03 09:34:11;;;;;;;12.33;4.43;;;;;;;;;;6273127;22;20162;-81
2022/10/03 09:36:55;;;;;;;15.37;5.17;;;;;;;;;;6266241;22;20279;-83
2022/10/03 09:39:50;;;;;;;13.00;4.90;;;;;;;;;;6265594;22;20176;-83
2022/10/03 09:42:37;;;;;;;19.03;5.03;;;;;;;;;;6237885;22;20165;-80
2022/10/03 09:45:25;;;;;;;15.37;5.03;;;;;;;;;;6265816;22;20180;-84
2022/10/03 09:48:09;;;;;;;16.37;4.53;;;;;;;;;;6238694;22;20197;-81
2022/10/03 09:50:54;;;;;;;11.67;4.13;;;;;;;;;;6268073;22;20169;-85
2022/10/03 09:53:37;;;;;;;16.77;4.40;;;;;;;;;;6268216;22;20180;-81
2022/10/03 09:56:18;;;;;;;10.10;4.07;;;;;;;;;;6248314;22;20197;-84
2022/10/03 09:59:04;;;;;;;10.60;4.00;;;;;;;;;;6238122;22;20511;-83
2022/10/03 10:01:37;;;;;;;7.03;3.27;;;;;;;;;;6240254;22;20165;-84
2022/10/03 10:04:30;;;;;;;9.57;3.20;;;;;;;;;;6265090;22;20177;-84
2022/10/03 10:07:18;;;;;;;5.77;2.60;;;;;;;;;;6266842;22;20428;-82
2022/10/03 10:09:57;;;;;;;11.47;3.47;;;;;;;;;;6227781;22;20374;-81
2022/10/03 10:12:43;;;;;;;10.90;3.40;;;;;;;;;;6268840;22;20197;-83
2022/10/03 10:15:26;;;;;;;11.90;3.47;;;;;;;;;;6241167;22;20309;-83
2022/10/03 10:18:07;;;;;;;8.63;3.17;;;;;;;;;;6263668;22;20518;-83
2022/10/03 10:20:54;;;;;;;8.57;3.13;;;;;;;;;;6267121;22;20195;-84
2022/10/03 10:23:32;;;;;;;13.27;3.03;;;;;;;;;;6266722;22;20675;-84
2022/10/03 10:26:18;;;;;;;13.50;3.80;;;;;;;;;;6263356;22;20529;-82
2022/10/03 10:29:03;;;;;;;9.70;3.17;;;;;;;;;;6238798;22;20197;-83
2022/10/03 10:31:45;;;;;;;8.10;3.40;;;;;;;;;;6264189;22;20181;-83
2022/10/03 10:34:40;;;;;;;10.40;3.67;;;;;;;;;;6259840;22;20260;-82
2022/10/03 10:37:38;;;;;;;8.93;3.57;;;;;;;;;;6268134;22;20692;-82
2022/10/03 10:40:13;;;;;;;13.30;3.90;;;;;;;;;;6267135;22;20194;-84
2022/10/03 10:42:55;;;;;;;7.47;3.37;;;;;;;;;;6241997;22;20212;-85
2022/10/03 10:45:41;;;;;;;11.80;4.43;;;;;;;;;;6268556;22;20158;-82
2022/10/03 10:48:23;;;;;;;6.63;3.20;;;;;;;;;;6267825;22;20195;-78
2022/10/03 10:51:18;;;;;;;14.40;4.07;;;;;;;;;;6266732;22;20158;-80
2022/10/03 10:54:07;;;;;;;12.27;3.03;;;;;;;;;;6187312;22;20208;-82
2022/10/03 10:56:58;;;;;;;8.40;3.07;;;;;;;;;;6267972;22;20186;-80
2022/10/03 10:59:52;;;;;;;12.27;3.00;;;;;;;;;;6270517;22;20168;-80
2022/10/03 11:05:41;;;;;;;11.00;2.90;;;;;;;;;;6266387;22;20557;-80
2022/10/03 11:08:36;;;;;;;14.97;6.57;;;;;;;;;;6238753;22;20608;-79
2022/10/03 11:11:18;;;;;;;8.27;3.70;;;;;;;;;;6266874;22;20181;-81
2022/10/03 11:14:09;;;;;;;22.87;12.00;;;;;;;;;;6248833;22;20647;-81
2022/10/03 11:17:00;;;;;;;12.07;5.97;;;;;;;;;;6241630;22;20193;-81
2022/10/03 11:19:43;;;;;;;9.70;3.23;;;;;;;;;;6266057;22;20228;-81
2022/10/03 11:22:31;;;;;;;7.63;2.73;;;;;;;;;;6267760;22;20173;-81
2022/10/03 11:25:21;;;;;;;11.50;3.50;;;;;;;;;;6239673;22;20657;-81
2022/10/03 11:28:20;;;;;;;13.90;3.20;;;;;;;;;;6265848;22;20202;-81
2022/10/03 11:31:01;;;;;;;8.10;2.43;;;;;;;;;;6173780;23;20425;-81
2022/10/03 11:37:08;;;;;;;8.83;2.83;;;;;;;;;;6265737;22;20204;-79
2022/10/03 11:39:50;;;;;;;10.40;3.23;;;;;;;;;;6262088;22;20209;-81
2022/10/03 11:42:34;;;;;;;9.20;3.00;;;;;;;;;;6265890;22;20181;-81
2022/10/03 11:45:03;;;;;;;11.33;2.57;;;;;;;;;;6242324;22;20436;-79
2022/10/03 11:47:40;;;;;;;8.43;2.77;;;;;;;;;;6268222;22;20581;-81
2022/10/03 11:50:26;;;;;;;9.97;2.73;;;;;;;;;;6270549;22;20169;-81
2022/10/03 11:53:10;;;;;;;8.47;2.50;;;;;;;;;;6272088;22;20176;-81
2022/10/03 11:55:40;;;;;;;7.93;2.80;;;;;;;;;;6243670;22;20193;-80
2022/10/03 11:58:24;;;;;;;11.90;2.83;;;;;;;;;;6267230;22;20200;-81
2022/10/03 12:00:56;;;;;;;9.13;2.50;;;;;;;;;;6265375;22;20177;-81
2022/10/03 12:09:03;;;;;;;7.40;2.73;;;;;;;;;;6245897;22;20193;-81
2022/10/03 12:11:33;;;;;;;7.90;2.47;;;;;;;;;;6268406;22;20158;-79
2022/10/03 12:14:22;;;;;;;12.23;3.43;;;;;;;;;;6240862;22;20177;-80
2022/10/03 12:16:58;;;;;;;14.47;4.73;;;;;;;;;;6268536;22;20186;-82
2022/10/03 12:19:32;;;;;;;8.83;3.33;;;;;;;;;;6241881;22;20687;-81
2022/10/03 12:22:03;;;;;;;9.17;3.30;;;;;;;;;;6241703;22;20180;-82
2022/10/03 12:24:32;;;;;;;12.13;3.70;;;;;;;;;;6267576;22;20176;-81
2022/10/03 12:27:04;;;;;;;24.20;6.87;;;;;;;;;;6241499;22;20666;-82
2022/10/03 12:29:34;;;;;;;6.93;2.40;;;;;;;;;;6273496;22;20245;-82
2022/10/03 12:32:16;;;;;;;10.67;2.83;;;;;;;;;;6275405;22;20227;-80
2022/10/03 12:34:49;;;;;;;11.23;2.83;;;;;;;;;;6267726;22;20506;-79
2022/10/03 12:37:27;;;;;;;7.83;2.40;;;;;;;;;;6267778;22;20194;-79
2022/10/03 12:40:03;;;;;;;9.43;2.93;;;;;;;;;;6242021;22;20181;-80
2022/10/03 12:42:31;;;;;;;10.17;2.50;;;;;;;;;;6270572;22;20173;-81
2022/10/03 12:45:00;;;;;;;5.63;2.43;;;;;;;;;;6270675;22;20174;-81
2022/10/03 12:47:31;;;;;;;8.83;3.20;;;;;;;;;;6269916;22;20189;-82
2022/10/03 12:50:07;;;;;;;7.97;2.60;;;;;;;;;;6269068;22;20166;-79
2022/10/03 12:52:41;;;;;;;7.47;2.13;;;;;;;;;;6270255;22;20652;-81
2022/10/03 12:55:20;;;;;;;10.93;2.10;;;;;;;;;;6270217;22;20194;-81
2022/10/03 12:58:01;;;;;;;5.57;2.10;;;;;;;;;;6239078;22;20614;-81
2022/10/03 13:00:33;;;;;;;5.70;2.23;;;;;;;;;;6243538;22;20185;-82
2022/10/03 13:03:18;;;;;;;9.73;2.63;;;;;;;;;;6270297;22;20173;-80
2022/10/03 13:05:55;;;;;;;4.23;2.00;;;;;;;;;;6270261;22;20516;-79
2022/10/03 13:08:42;;;;;;;8.60;2.40;;;;;;;;;;6243980;22;20197;-80
2022/10/03 13:11:16;;;;;;;4.30;1.87;;;;;;;;;;6267928;22;20173;-79
2022/10/03 13:13:49;;;;;;;6.47;2.07;;;;;;;;;;6217217;22;20181;-79
2022/10/03 13:16:21;;;;;;;7.07;1.97;;;;;;;;;;6268969;22;20193;-80
2022/10/03 13:18:53;;;;;;;8.40;2.50;;;;;;;;;;6270206;22;20205;-85
2022/10/03 13:21:29;;;;;;;9.27;2.33;;;;;;;;;;6242217;22;20608;-86
2022/10/03 13:23:58;;;;;;;5.47;2.00;;;;;;;;;;6242843;22;20559;-83
2022/10/03 13:26:28;;;;;;;8.90;2.37;;;;;;;;;;6242758;22;20177;-81
2022/10/03 13:29:02;;;;;;;8.43;2.30;;;;;;;;;;6269830;22;20235;-82
2022/10/03 13:31:36;;;;;;;7.30;2.37;;;;;;;;;;6242484;22;20189;-82
2022/10/03 13:34:12;;;;;;;7.63;2.57;;;;;;;;;;6270234;22;20165;-82
2022/10/03 13:36:44;;;;;;;8.43;2.00;;;;;;;;;;6264494;22;20659;-80
2022/10/03 13:39:20;;;;;;;5.30;2.20;;;;;;;;;;6246505;22;20204;-81
2022/10/03 13:41:59;;;;;;;9.47;2.40;;;;;;;;;;6270684;22;20250;-82
2022/10/03 13:44:35;;;;;;;6.17;2.50;;;;;;;;;;6246776;22;20259;-81
2022/10/03 13:47:07;;;;;;;11.67;2.90;;;;;;;;;;6300197;22;20276;-81
2022/10/03 13:49:40;;;;;;;9.77;2.53;;;;;;;;;;6300824;22;20612;-79
2022/10/03 13:52:16;;;;;;;7.40;2.50;;;;;;;;;;6299527;22;20173;-80
2022/10/03 13:54:54;;;;;;;7.63;2.60;;;;;;;;;;6246919;22;20200;-80
2022/10/03 13:57:27;;;;;;;9.70;2.23;;;;;;;;;;6300108;22;20267;-80
2022/10/03 14:00:00;;;;;;;7.93;2.33;;;;;;;;;;6272798;22;20191;-81
2022/10/03 14:02:38;;;;;;;7.37;2.00;;;;;;;;;;6299477;22;20214;-81
2022/10/03 14:05:13;;;;;;;22.07;3.23;;;;;;;;;;6273947;22;20599;-80
2022/10/03 14:07:51;;;;;;;8.53;2.87;;;;;;;;;;6272695;22;20188;-81
2022/10/03 14:10:26;;;;;;;8.40;2.67;;;;;;;;;;6301679;22;20244;-81
2022/10/03 14:13:04;;;;;;;6.53;2.70;;;;;;;;;;6299206;22;20176;-81
2022/10/03 14:15:36;;;;;;;9.10;3.03;;;;;;;;;;6301369;22;20192;-81
2022/10/03 14:18:08;;;;;;;6.43;2.70;;;;;;;;;;6301405;22;20236;-81
2022/10/03 14:20:38;;;;;;;8.53;2.90;;;;;;;;;;6304733;22;20157;-81
2022/10/03 14:23:21;;;;;;;5.00;2.73;;;;;;;;;;6302548;22;20256;-81
2022/10/03 14:25:59;;;;;;;10.83;2.87;;;;;;;;;;6302977;22;20165;-81
2022/10/03 14:28:27;;;;;;;5.57;2.60;;;;;;;;;;6302151;22;20275;-81
2022/10/03 14:31:00;;;;;;;6.67;2.87;;;;;;;;;;6276446;22;20186;-80
2022/10/03 14:33:34;;;;;;;8.80;3.10;;;;;;;;;;6275883;22;20246;-79
2022/10/03 14:36:13;;;;;;;10.70;3.47;;;;;;;;;;6294255;22;20688;-79
2022/10/03 14:39:00;;;;;;;9.50;3.20;;;;;;;;;;6271047;22;20193;-79
2022/10/03 14:41:39;;;;;;;10.33;3.40;;;;;;;;;;6247516;22;20162;-80
2022/10/03 14:44:09;;;;;;;5.50;3.13;;;;;;;;;;6270305;22;20721;-80
2022/10/03 14:46:42;;;;;;;11.60;3.80;;;;;;;;;;6270817;22;20862;-81
2022/10/03 14:49:17;;;;;;;9.20;3.33;;;;;;;;;;6243662;22;20177;-81
2022/10/03 14:51:48;;;;;;;8.97;3.17;;;;;;;;;;6271614;22;20165;-79
2022/10/03 14:54:19;;;;;;;13.30;3.70;;;;;;;;;;6270003;22;20181;-80
2022/10/03 14:56:50;;;;;;;8.07;3.13;;;;;;;;;;6269141;22;20198;-80
2022/10/03 14:59:20;;;;;;;10.70;3.70;;;;;;;;;;6216251;22;20173;-80
2022/10/03 15:01:49;;;;;;;8.83;3.17;;;;;;;;;;6269049;22;20244;-80
2022/10/03 15:04:22;;;;;;;7.87;3.57;;;;;;;;;;6268908;22;20174;-80
2022/10/03 15:06:52;;;;;;;6.93;3.37;;;;;;;;;;6268441;22;20299;-80
2022/10/03 15:09:24;;;;;;;9.33;3.60;;;;;;;;;;6241654;22;20180;-80
2022/10/03 15:11:54;;;;;;;11.80;3.73;;;;;;;;;;6269088;22;20197;-80
2022/10/03 15:14:23;;;;;;;15.17;4.00;;;;;;;;;;6270935;22;20170;-80
2022/10/03 15:16:52;;;;;;;11.97;3.83;;;;;;;;;;6270987;22;20189;-79
2022/10/03 15:19:21;;;;;;;9.17;3.50;;;;;;;;;;6244799;22;20178;-79
2022/10/03 15:21:51;;;;;;;10.87;3.13;;;;;;;;;;6270728;22;20284;-79
2022/10/03 15:24:20;;;;;;;10.20;3.90;;;;;;;;;;6244539;22;20185;-79
2022/10/03 15:26:51;;;;;;;12.57;3.60;;;;;;;;;;6271500;22;20882;-80
2022/10/03 15:29:24;;;;;;;11.13;3.30;;;;;;;;;;6272881;22;20166;-80
2022/10/03 15:31:51;;;;;;;13.67;3.63;;;;;;;;;;6243193;22;20181;-79
2022/10/03 15:34:20;;;;;;;8.03;3.17;;;;;;;;;;6269860;22;20837;-80
2022/10/03 15:36:49;;;;;;;7.50;3.40;;;;;;;;;;6270873;22;20202;-80
2022/10/03 15:39:19;;;;;;;18.90;3.47;;;;;;;;;;6271494;22;20181;-80
2022/10/03 15:41:51;;;;;;;7.77;3.20;;;;;;;;;;6271716;22;20257;-80
2022/10/03 15:44:22;;;;;;;8.97;3.80;;;;;;;;;;6270064;22;20162;-80
2022/10/03 15:46:52;;;;;;;8.97;3.80;;;;;;;;;;6243296;22;20239;-79
2022/10/03 15:49:22;;;;;;;8.90;3.40;;;;;;;;;;6272597;22;20173;-79
2022/10/03 15:54:48;;;;;;;9.63;3.50;;;;;;;;;;6249711;22;20180;-80
2022/10/03 15:57:19;;;;;;;9.73;3.47;;;;;;;;;;6266449;22;20205;-80
2022/10/03 15:59:51;;;;;;;7.90;3.30;;;;;;;;;;6267363;22;20162;-80